Time;durP1;ratioP1;P1;durP2;ratioP2;P2;SDS_P1;SDS_P2;PMS_P1;PMS_P2;Temp;Humidity;BMP_temperature;BMP_pressure;BME280_temperature;BME280_humidity;BME280_pressure;Samples;Min_cycle;Max_cycle;Signal;HPM_P1;HPM_P2
2021/08/10 00:01:56;;;;;;;6.33;5.80;;;;;;;23.18;71.80;101068.59;4984301;28;102821;-87
2021/08/10 00:04:23;;;;;;;7.63;6.13;;;;;;;23.17;72.17;101060.63;4984811;28;101768;-87
2021/08/10 00:06:49;;;;;;;6.85;6.20;;;;;;;23.18;71.73;101065.03;4983750;28;101803;-88
2021/08/10 00:09:16;;;;;;;6.53;5.80;;;;;;;23.17;71.94;101061.44;4985236;28;102030;-87
2021/08/10 00:11:43;;;;;;;6.82;6.20;;;;;;;23.17;71.96;101057.84;4981861;28;102786;-87
2021/08/10 00:14:10;;;;;;;6.25;5.65;;;;;;;23.17;71.98;101061.44;4983455;28;101981;-88
2021/08/10 00:16:43;;;;;;;6.25;5.65;;;;;;;23.16;72.12;101064.56;4977455;28;102035;-87
2021/08/10 00:19:10;;;;;;;5.93;5.43;;;;;;;23.16;72.14;101059.81;4988076;28;101996;-87
2021/08/10 00:21:36;;;;;;;6.40;5.80;;;;;;;23.17;71.95;101061.44;4970836;28;102711;-87
2021/08/10 00:24:04;;;;;;;6.50;5.90;;;;;;;23.17;72.06;101061.44;4983362;28;101945;-87
2021/08/10 00:26:31;;;;;;;6.25;5.47;;;;;;;23.16;72.19;101065.38;4981528;28;101996;-87
2021/08/10 00:28:58;;;;;;;6.60;6.10;;;;;;;23.17;72.18;101066.19;4985837;28;102162;-87
2021/08/10 00:31:26;;;;;;;6.20;5.65;;;;;;;23.16;72.23;101059.81;4987683;28;102382;-88
2021/08/10 00:33:54;;;;;;;5.80;5.28;;;;;;;23.16;71.86;101062.59;4983661;28;101817;-87
2021/08/10 00:36:21;;;;;;;6.37;5.77;;;;;;;23.16;72.19;101065.38;4980259;28;102020;-87
2021/08/10 00:38:47;;;;;;;6.60;6.03;;;;;;;23.17;71.89;101055.06;4967667;28;102071;-87
2021/08/10 00:41:14;;;;;;;6.50;5.88;;;;;;;23.15;nan;101047.09;4983122;28;102717;-87
2021/08/10 00:43:43;;;;;;;6.68;5.95;;;;;;;23.17;71.98;101053.09;5002101;28;101946;-87
2021/08/10 00:46:11;;;;;;;6.30;5.65;;;;;;;23.16;72.00;101057.03;4982808;28;102287;-90
2021/08/10 00:48:39;;;;;;;5.97;5.47;;;;;;;23.16;71.96;101054.28;4980905;28;102257;-89
2021/08/10 00:51:10;;;;;;;7.03;6.32;;;;;;;23.16;72.07;101062.59;4990487;28;102516;-88
2021/08/10 00:53:37;;;;;;;6.50;5.53;;;;;;;23.16;72.31;101068.16;4987951;28;102050;-88
2021/08/10 00:56:05;;;;;;;6.05;5.45;;;;;;;23.16;72.16;101059.03;4977451;28;102173;-89
2021/08/10 00:58:32;;;;;;;6.35;5.68;;;;;;;23.16;72.19;101067.34;4973011;28;102212;-89
2021/08/10 01:00:59;;;;;;;6.40;5.80;;;;;;;23.16;72.18;101067.34;4974268;28;102023;-89
2021/08/10 01:03:25;;;;;;;6.30;5.72;;;;;;;23.15;71.95;101063.78;4978664;28;102165;-89
2021/08/10 01:05:52;;;;;;;6.28;5.70;;;;;;;23.16;72.14;101065.38;4976819;28;102168;-89
2021/08/10 01:08:36;;;;;;;6.88;5.55;;;;;;;23.16;72.23;101068.16;4971383;28;102221;-89
2021/08/10 01:11:09;;;;;;;6.10;5.50;;;;;;;23.16;72.23;101059.03;4968041;28;102769;-89
2021/08/10 01:13:41;;;;;;;6.13;5.63;;;;;;;23.16;72.24;101054.28;4976229;28;102129;-88
2021/08/10 01:16:19;;;;;;;6.05;5.55;;;;;;;23.15;71.98;101052.66;4980846;28;101840;-87
2021/08/10 01:18:50;;;;;;;;;;;;;;;23.15;72.12;101061.00;4978338;28;101997;-87
2021/08/10 01:21:20;;;;;;;6.13;5.60;;;;;;;23.15;72.25;101058.22;4983092;28;102615;-89
2021/08/10 01:23:53;;;;;;;6.03;5.43;;;;;;;23.15;72.15;101058.22;4983161;28;102016;-89
2021/08/10 01:26:29;;;;;;;6.20;5.60;;;;;;;23.14;72.24;101051.03;4982057;28;101862;-89
2021/08/10 01:29:04;;;;;;;5.78;5.28;;;;;;;23.15;72.13;101052.66;4986906;28;101910;-89
2021/08/10 01:31:37;;;;;;;5.32;4.82;;;;;;;23.14;72.21;101045.47;4985202;28;102699;-88
2021/08/10 01:34:15;;;;;;;5.75;5.25;;;;;;;23.15;72.27;101052.66;4986329;28;102023;-88
2021/08/10 01:36:43;;;;;;;;;;;;;;;23.15;72.00;101062.94;4983728;28;101991;-88
2021/08/10 01:39:12;;;;;;;5.88;5.28;;;;;;;23.15;72.33;101058.22;4987634;28;102073;-88
2021/08/10 01:41:38;;;;;;;;;;;;;;;23.15;72.42;101055.44;4985996;28;102795;-88
2021/08/10 01:44:05;;;;;;;6.10;5.50;;;;;;;23.15;72.37;101069.31;4987517;28;101819;-88
2021/08/10 01:46:35;;;;;;;5.78;5.28;;;;;;;23.15;72.28;101058.22;4985886;28;101842;-88
2021/08/10 01:49:02;;;;;;;6.10;5.60;;;;;;;23.14;72.27;101062.13;4967710;28;102027;-88
2021/08/10 01:51:31;;;;;;;5.50;5.00;;;;;;;23.14;72.44;101056.56;5001843;28;102446;-88
2021/08/10 01:54:01;;;;;;;5.55;5.05;;;;;;;23.14;72.25;101056.56;4990566;28;101926;-89
2021/08/10 01:56:30;;;;;;;5.65;5.20;;;;;;;23.14;72.11;101051.03;4983247;28;101963;-89
2021/08/10 01:58:59;;;;;;;5.50;5.00;;;;;;;23.12;72.27;101047.81;4984972;28;102201;-89
2021/08/10 02:01:28;;;;;;;6.72;5.55;;;;;;;23.13;72.19;101049.41;4985467;28;102722;-87
2021/08/10 02:03:57;;;;;;;6.05;5.50;;;;;;;23.13;72.23;101043.84;4982828;28;102057;-89
2021/08/10 02:06:25;;;;;;;5.88;5.30;;;;;;;23.14;72.40;101050.22;4984533;28;102272;-88
2021/08/10 02:08:54;;;;;;;5.63;5.13;;;;;;;23.14;72.36;101044.66;4994998;28;102120;-89
2021/08/10 02:11:24;;;;;;;6.15;5.55;;;;;;;23.14;72.37;101050.22;4980812;28;103220;-89
2021/08/10 02:13:51;;;;;;;5.40;4.93;;;;;;;23.13;72.34;101043.84;4981058;28;102082;-89
2021/08/10 02:16:22;;;;;;;5.47;5.03;;;;;;;23.13;72.37;101043.84;4980343;28;102103;-89
2021/08/10 02:18:56;;;;;;;5.50;5.00;;;;;;;23.13;72.33;101037.50;4982266;28;101989;-89
2021/08/10 02:21:30;;;;;;;5.60;5.00;;;;;;;23.13;72.38;101038.31;4978621;28;102754;-89
2021/08/10 02:24:03;;;;;;;5.68;5.07;;;;;;;23.11;72.17;101037.84;4991296;28;102267;-89
2021/08/10 02:26:34;;;;;;;5.95;5.32;;;;;;;23.13;72.16;101041.09;4986515;28;102218;-90
2021/08/10 02:29:02;;;;;;;6.53;5.03;;;;;;;23.12;72.21;101042.25;4981654;28;102112;-90
2021/08/10 02:31:30;;;;;;;5.43;4.93;;;;;;;23.12;72.41;101035.91;4979913;28;103881;-89
2021/08/10 02:33:59;;;;;;;5.55;5.05;;;;;;;23.12;72.40;101039.47;4970583;28;102155;-90
2021/08/10 02:36:29;;;;;;;5.50;5.00;;;;;;;23.12;72.33;101031.16;4981441;28;102104;-90
2021/08/10 02:38:58;;;;;;;5.50;4.97;;;;;;;23.12;72.32;101028.38;4966689;28;102064;-90
2021/08/10 02:41:25;;;;;;;5.70;5.20;;;;;;;23.12;72.20;101024.78;4982477;28;101920;-89
2021/08/10 02:43:52;;;;;;;5.68;5.18;;;;;;;23.12;72.34;101024.78;4982095;28;102013;-90
2021/08/10 02:46:19;;;;;;;6.00;5.40;;;;;;;23.12;72.46;101033.13;4979533;28;102012;-89
2021/08/10 02:48:46;;;;;;;5.30;4.80;;;;;;;23.13;72.14;101029.97;4980718;28;102239;-90
2021/08/10 02:51:15;;;;;;;5.55;5.05;;;;;;;23.12;72.59;101031.16;4990809;28;102704;-89
2021/08/10 02:53:42;;;;;;;5.87;5.37;;;;;;;23.11;72.20;101029.50;4976247;28;102120;-89
2021/08/10 02:56:12;;;;;;;5.75;5.22;;;;;;;23.12;72.20;101033.91;4980600;28;102246;-90
2021/08/10 02:58:46;;;;;;;5.57;4.90;;;;;;;23.12;72.38;101024.78;4973922;28;102287;-89
2021/08/10 03:01:15;;;;;;;5.90;5.32;;;;;;;23.11;72.49;101029.50;4980745;28;102759;-89
2021/08/10 03:03:43;;;;;;;5.30;4.88;;;;;;;23.12;72.42;101031.16;4979903;28;102234;-89
2021/08/10 03:06:11;;;;;;;5.80;5.07;;;;;;;23.12;72.35;101030.34;4981680;28;102807;-89
2021/08/10 03:08:45;;;;;;;5.43;5.03;;;;;;;23.10;72.35;101025.13;4977299;28;102298;-89
2021/08/10 03:11:13;;;;;;;5.47;5.05;;;;;;;23.12;72.41;101033.13;4979523;28;102719;-89
2021/08/10 03:13:42;;;;;;;5.45;4.95;;;;;;;23.12;72.45;101035.91;4981399;28;102108;-89
2021/08/10 03:16:12;;;;;;;5.72;5.00;;;;;;;23.13;72.50;101032.75;4982176;28;102136;-88
2021/08/10 03:18:39;;;;;;;7.10;5.47;;;;;;;23.11;72.58;101026.72;4981232;28;102069;-89
2021/08/10 03:21:07;;;;;;;5.63;5.10;;;;;;;23.11;72.44;101029.50;4986530;28;102940;-90
2021/08/10 03:23:36;;;;;;;5.63;5.03;;;;;;;23.11;72.63;101040.63;4983412;28;102124;-89
2021/08/10 03:26:08;;;;;;;5.80;5.30;;;;;;;23.11;72.59;101029.50;4980169;28;102220;-90
2021/08/10 03:28:41;;;;;;;6.43;5.50;;;;;;;23.09;72.25;101023.50;4981268;28;102123;-90
2021/08/10 03:31:09;;;;;;;6.40;5.80;;;;;;;23.10;72.55;101027.09;4969954;28;102248;-90
2021/08/10 03:33:36;;;;;;;5.40;4.90;;;;;;;23.10;72.62;101027.91;4985973;28;101895;-90
2021/08/10 03:36:04;;;;;;;5.60;5.10;;;;;;;23.10;72.50;101022.34;4978785;28;102179;-90
2021/08/10 03:38:32;;;;;;;5.85;5.25;;;;;;;23.10;72.70;101022.34;4980622;28;102201;-90
2021/08/10 03:41:02;;;;;;;5.53;4.95;;;;;;;23.11;72.46;101023.16;4981509;28;102480;-90
2021/08/10 03:43:30;;;;;;;6.15;5.55;;;;;;;23.10;72.53;101019.56;4985848;28;102025;-90
2021/08/10 03:45:58;;;;;;;5.72;5.13;;;;;;;23.11;72.56;101023.94;4974018;28;101881;-90
2021/08/10 03:48:25;;;;;;;5.38;4.85;;;;;;;23.11;72.50;101021.19;4978589;28;102140;-90
2021/08/10 03:50:54;;;;;;;5.50;5.00;;;;;;;23.11;72.49;101021.19;4992391;28;102780;-90
2021/08/10 03:53:21;;;;;;;5.57;5.07;;;;;;;23.11;72.50;101023.16;4980326;28;102069;-90
2021/08/10 03:55:50;;;;;;;5.40;4.82;;;;;;;23.11;72.74;101018.41;4978137;28;102120;-90
2021/08/10 03:58:21;;;;;;;5.60;5.10;;;;;;;23.12;72.80;101027.56;4972984;28;102263;-89
2021/08/10 04:00:50;;;;;;;5.85;5.05;;;;;;;23.11;72.73;101023.94;4976573;28;102725;-89
2021/08/10 04:03:18;;;;;;;5.20;4.72;;;;;;;23.11;72.27;101026.72;4981763;28;102418;-89
2021/08/10 04:05:47;;;;;;;5.70;5.20;;;;;;;23.12;72.58;101019.25;4977325;28;102125;-89
2021/08/10 04:08:14;;;;;;;6.30;5.30;;;;;;;23.11;72.50;101018.41;4979757;28;102135;-89
2021/08/10 04:10:47;;;;;;;5.70;5.20;;;;;;;23.12;72.85;101028.38;4977407;28;103691;-89
2021/08/10 04:13:14;;;;;;;6.25;4.85;;;;;;;23.12;72.62;101030.34;4991080;28;102044;-89
2021/08/10 04:15:43;;;;;;;5.60;5.05;;;;;;;23.12;72.37;101031.16;4979296;28;102017;-90
2021/08/10 04:18:13;;;;;;;5.35;4.93;;;;;;;23.12;72.44;101031.16;4978670;28;102190;-90
2021/08/10 04:20:41;;;;;;;5.50;5.00;;;;;;;23.13;72.38;101034.72;4974464;28;102790;-90
2021/08/10 04:23:09;;;;;;;;;;;;;;;23.13;72.54;101032.75;4992229;28;101958;-90
2021/08/10 04:25:36;;;;;;;5.28;4.85;;;;;;;23.13;72.68;101037.50;4977950;28;101997;-89
2021/08/10 04:28:04;;;;;;;6.25;5.18;;;;;;;23.13;72.49;101027.19;4976731;28;102134;-89
2021/08/10 04:30:30;;;;;;;6.65;5.30;;;;;;;23.12;72.62;101025.59;4990810;28;102784;-89
2021/08/10 04:32:57;;;;;;;5.53;5.03;;;;;;;23.13;72.58;101032.75;4984221;28;102735;-89
2021/08/10 04:35:25;;;;;;;5.50;5.00;;;;;;;23.13;72.54;101027.19;4971846;28;102269;-89
2021/08/10 04:37:52;;;;;;;5.90;5.32;;;;;;;23.14;72.65;101033.56;4967773;28;102107;-90
2021/08/10 04:40:19;;;;;;;5.50;5.00;;;;;;;23.13;72.69;101027.19;4983014;28;102720;-89
2021/08/10 04:42:45;;;;;;;5.15;4.68;;;;;;;23.14;72.51;101034.38;4979755;28;102145;-89
2021/08/10 04:45:12;;;;;;;5.20;4.75;;;;;;;23.14;72.45;101039.91;4978263;28;101988;-89
2021/08/10 04:47:38;;;;;;;5.53;5.00;;;;;;;23.14;72.56;101034.38;4979477;28;102143;-89
2021/08/10 04:50:06;;;;;;;5.82;5.28;;;;;;;23.14;72.76;101034.38;4971718;28;102767;-89
2021/08/10 04:52:34;;;;;;;4.85;4.45;;;;;;;23.13;72.76;101038.31;4979898;28;102323;-89
2021/08/10 04:55:02;;;;;;;5.43;4.93;;;;;;;23.15;72.82;101033.22;4979397;28;102081;-90
2021/08/10 04:57:28;;;;;;;5.30;4.80;;;;;;;23.15;72.62;101029.63;4979580;28;102148;-89
2021/08/10 04:59:55;;;;;;;5.25;4.75;;;;;;;23.15;72.85;101029.63;4973583;28;102805;-89
2021/08/10 05:02:22;;;;;;;5.10;4.70;;;;;;;23.14;72.63;101023.25;4976945;28;102207;-89
2021/08/10 05:04:49;;;;;;;5.13;4.70;;;;;;;23.16;72.86;101022.94;4974542;28;102176;-89
2021/08/10 05:07:16;;;;;;;5.25;4.75;;;;;;;23.15;72.76;101016.56;4965774;28;102098;-89
2021/08/10 05:10:05;;;;;;;5.30;4.80;;;;;;;23.16;72.81;101015.41;4963370;28;104101;-90
2021/08/10 05:12:33;;;;;;;5.22;4.78;;;;;;;23.16;73.08;101020.16;4977372;28;102227;-90
2021/08/10 05:15:00;;;;;;;;;;;;;;;23.16;72.92;101015.41;4978186;28;102036;-90
2021/08/10 05:17:27;;;;;;;5.43;4.63;;;;;;;23.16;72.82;101015.41;4982189;28;102253;-90
2021/08/10 05:19:55;;;;;;;5.90;5.23;;;;;;;23.17;72.70;101011.47;4979520;28;102704;-89
2021/08/10 05:22:22;;;;;;;4.80;4.40;;;;;;;23.16;72.96;101015.41;4981861;28;102106;-90
2021/08/10 05:24:48;;;;;;;4.65;4.25;;;;;;;23.17;72.81;101011.47;4976779;28;102216;-89
2021/08/10 05:27:16;;;;;;;4.63;4.30;;;;;;;23.17;72.86;101019.78;4982741;28;102460;-89
2021/08/10 05:29:43;;;;;;;4.67;4.27;;;;;;;23.17;72.76;101017.00;4976311;28;102318;-89
2021/08/10 05:32:09;;;;;;;4.93;4.43;;;;;;;23.17;72.75;101019.78;4979900;28;102113;-90
2021/08/10 05:34:38;;;;;;;5.50;5.00;;;;;;;23.18;72.67;101018.63;4972859;28;102269;-90
2021/08/10 05:37:05;;;;;;;5.40;4.90;;;;;;;23.18;72.78;101018.63;4978866;28;102066;-90
2021/08/10 05:39:32;;;;;;;6.40;4.93;;;;;;;23.19;72.85;101014.72;4976197;28;102796;-89
2021/08/10 05:41:58;;;;;;;5.20;4.47;;;;;;;23.19;72.76;101014.72;4979069;28;102118;-89
2021/08/10 05:44:31;;;;;;;5.20;4.80;;;;;;;23.19;72.59;101014.72;4973723;28;102101;-89
2021/08/10 05:46:59;;;;;;;5.15;4.75;;;;;;;23.21;72.53;101012.38;4990037;28;102209;-90
2021/08/10 05:49:26;;;;;;;5.57;5.07;;;;;;;23.21;72.88;101022.69;4975434;28;102824;-90
2021/08/10 05:51:53;;;;;;;5.20;4.80;;;;;;;23.22;72.48;101014.00;4986298;28;102106;-90
2021/08/10 05:54:19;;;;;;;5.38;4.90;;;;;;;23.23;72.91;101020.38;4977091;28;102015;-89
2021/08/10 05:56:47;;;;;;;5.65;5.15;;;;;;;23.24;72.90;101022.78;4981189;28;102185;-89
2021/08/10 05:59:14;;;;;;;5.90;5.30;;;;;;;23.25;72.48;101013.28;4976311;28;102469;-90
2021/08/10 06:01:42;;;;;;;5.47;5.00;;;;;;;23.26;72.66;101017.69;4978985;28;102211;-90
2021/08/10 06:04:09;;;;;;;6.45;5.85;;;;;;;23.27;72.59;101010.97;4989208;28;102095;-89
2021/08/10 06:06:35;;;;;;;5.63;5.18;;;;;;;23.27;72.58;101013.75;4980017;28;102253;-89
2021/08/10 06:09:02;;;;;;;5.57;5.07;;;;;;;23.29;72.51;101012.59;4978225;28;102734;-89
2021/08/10 06:11:49;;;;;;;4.95;4.55;;;;;;;23.31;72.33;101013.06;4980040;28;102007;-90
2021/08/10 06:14:16;;;;;;;4.90;4.47;;;;;;;23.32;72.31;101009.13;4980492;28;102189;-89
2021/08/10 06:16:44;;;;;;;5.40;5.00;;;;;;;23.32;72.32;101011.91;4973924;28;102240;-89
2021/08/10 06:19:11;;;;;;;6.03;5.50;;;;;;;23.34;71.88;101009.59;4977023;28;102758;-89
2021/08/10 06:21:38;;;;;;;6.20;5.22;;;;;;;23.35;72.02;101005.66;4978330;28;102174;-90
2021/08/10 06:24:05;;;;;;;5.15;4.75;;;;;;;23.36;72.13;101018.38;4970662;28;102197;-90
2021/08/10 06:26:32;;;;;;;5.68;5.22;;;;;;;23.37;72.21;101022.75;4976665;28;102219;-89
2021/08/10 06:28:59;;;;;;;5.78;5.28;;;;;;;23.37;72.16;101011.63;4975954;28;102702;-89
2021/08/10 06:31:26;;;;;;;6.82;5.57;;;;;;;23.38;72.13;101010.50;4971609;28;102063;-89
2021/08/10 06:33:54;;;;;;;6.03;5.47;;;;;;;23.39;72.00;101006.56;4977100;28;102132;-90
2021/08/10 06:36:20;;;;;;;5.73;5.20;;;;;;;23.40;72.11;101008.16;4979195;28;102057;-90
2021/08/10 06:38:47;;;;;;;6.00;5.50;;;;;;;23.41;71.94;101009.81;4978553;28;104277;-89
2021/08/10 06:41:13;;;;;;;6.10;5.50;;;;;;;23.42;72.18;101011.41;4983347;28;101922;-89
2021/08/10 06:43:40;;;;;;;5.88;5.38;;;;;;;23.41;72.23;101018.13;4989428;28;102102;-89
2021/08/10 06:46:07;;;;;;;6.28;5.45;;;;;;;23.43;72.03;101013.03;4982686;28;102120;-90
2021/08/10 06:48:34;;;;;;;6.07;5.57;;;;;;;23.42;71.81;101011.41;4981196;28;102868;-89
2021/08/10 06:51:03;;;;;;;5.63;5.13;;;;;;;23.44;72.01;101009.06;4970717;28;102239;-89
2021/08/10 06:53:30;;;;;;;;;;;;;;;23.44;72.19;101009.91;4979230;28;102080;-89
2021/08/10 06:55:56;;;;;;;5.63;5.13;;;;;;;23.45;72.02;101014.28;4980712;28;102203;-89
2021/08/10 06:58:23;;;;;;;6.18;5.57;;;;;;;23.46;72.50;101012.31;4982414;28;102130;-89
2021/08/10 07:00:49;;;;;;;6.00;5.50;;;;;;;23.47;71.82;101013.94;4981617;28;102096;-90
2021/08/10 07:03:16;;;;;;;6.15;5.55;;;;;;;23.47;71.88;101011.97;4980517;28;102149;-90
2021/08/10 07:05:42;;;;;;;6.20;5.63;;;;;;;23.47;71.91;101002.81;4983613;28;102282;-88
2021/08/10 07:08:10;;;;;;;6.43;5.82;;;;;;;23.48;71.80;101010.00;4989822;28;102781;-88
2021/08/10 07:10:37;;;;;;;;;;;;;;;23.49;71.98;101003.28;4981717;28;102270;-89
2021/08/10 07:13:05;;;;;;;6.25;5.75;;;;;;;23.49;71.93;101003.28;4981047;28;102123;-89
2021/08/10 07:15:31;;;;;;;5.90;5.40;;;;;;;23.50;72.08;101008.47;4978609;28;102330;-90
2021/08/10 07:17:59;;;;;;;6.13;5.57;;;;;;;23.50;72.15;101008.47;4980269;28;102737;-90
2021/08/10 07:20:26;;;;;;;6.28;5.68;;;;;;;23.52;72.03;101001.78;4979097;28;102176;-90
2021/08/10 07:22:53;;;;;;;6.20;5.70;;;;;;;23.53;71.88;101004.19;4978843;28;102128;-89
2021/08/10 07:25:21;;;;;;;6.25;5.72;;;;;;;23.54;71.79;101007.78;4982817;28;102127;-89
2021/08/10 07:27:48;;;;;;;6.20;5.70;;;;;;;23.54;71.98;101007.78;4978236;28;102695;-89
2021/08/10 07:30:17;;;;;;;6.53;6.03;;;;;;;23.54;71.84;101016.13;4978421;28;102273;-90
2021/08/10 07:32:45;;;;;;;6.07;5.57;;;;;;;23.56;71.79;101017.38;4979625;28;102034;-89
2021/08/10 07:35:12;;;;;;;6.25;5.75;;;;;;;23.55;71.80;101014.94;4981747;28;102747;-89
2021/08/10 07:37:40;;;;;;;5.93;5.45;;;;;;;23.57;71.74;101016.22;4979372;28;102873;-91
2021/08/10 07:40:08;;;;;;;6.50;6.00;;;;;;;23.57;71.94;101016.22;4980694;28;102192;-90
2021/08/10 07:42:42;;;;;;;6.20;5.70;;;;;;;23.58;71.73;101015.06;4982133;28;102030;-90
2021/08/10 07:45:09;;;;;;;;;;;;;;;23.58;71.68;101012.28;4983425;28;102127;-90
2021/08/10 07:47:36;;;;;;;6.65;6.07;;;;;;;23.58;71.76;101017.81;4984294;28;102878;-90
2021/08/10 07:50:03;;;;;;;6.25;5.75;;;;;;;23.59;71.74;101016.69;4979588;28;102093;-90
2021/08/10 07:52:30;;;;;;;6.70;6.10;;;;;;;23.60;71.71;101015.53;4980713;28;102216;-91
2021/08/10 07:54:56;;;;;;;6.10;5.60;;;;;;;23.61;71.90;101017.13;4990699;28;103000;-91
2021/08/10 07:57:25;;;;;;;6.00;5.50;;;;;;;23.62;71.79;101016.00;4983507;28;102713;-90
2021/08/10 07:59:53;;;;;;;6.97;5.70;;;;;;;23.62;71.72;101010.44;4979398;28;102053;-90
2021/08/10 08:02:20;;;;;;;6.23;5.73;;;;;;;23.63;71.71;101023.16;4977026;28;102138;-89
2021/08/10 08:04:46;;;;;;;6.38;5.88;;;;;;;23.63;71.70;101008.47;4985522;28;102076;-88
2021/08/10 08:07:14;;;;;;;6.83;6.13;;;;;;;23.64;71.59;101002.53;4980707;28;102826;-91
2021/08/10 08:09:42;;;;;;;6.30;5.70;;;;;;;23.65;71.49;101004.13;4973288;28;102078;-88
2021/08/10 08:12:09;;;;;;;6.75;6.15;;;;;;;23.66;71.63;101003.00;4980188;28;101818;-88
2021/08/10 08:14:36;;;;;;;6.88;6.28;;;;;;;23.66;71.66;100991.09;4986029;28;102127;-88
2021/08/10 08:17:04;;;;;;;7.20;6.47;;;;;;;23.66;71.74;100988.31;4982444;28;102860;-88
2021/08/10 08:19:31;;;;;;;6.68;6.07;;;;;;;23.67;71.50;100996.31;4981731;28;102313;-88
2021/08/10 08:21:58;;;;;;;6.13;5.53;;;;;;;23.68;71.52;100988.78;4981055;28;101908;-88
2021/08/10 08:24:25;;;;;;;6.05;5.55;;;;;;;23.68;71.36;100997.91;4985139;28;102130;-88
2021/08/10 08:26:51;;;;;;;6.53;5.95;;;;;;;23.68;71.38;100991.56;4982785;28;102738;-89
2021/08/10 08:29:18;;;;;;;7.15;6.63;;;;;;;23.68;71.45;100989.59;4979064;28;102049;-88
2021/08/10 08:31:44;;;;;;;7.03;6.32;;;;;;;23.69;71.72;100982.03;4983104;28;101924;-88
2021/08/10 08:34:12;;;;;;;7.60;5.90;;;;;;;23.68;71.41;100980.44;4983719;28;102048;-88
2021/08/10 08:36:39;;;;;;;7.10;6.50;;;;;;;23.69;71.71;100980.09;4982211;28;102810;-88
2021/08/10 08:39:05;;;;;;;6.68;6.18;;;;;;;23.69;71.38;100977.31;4981876;28;101809;-88
2021/08/10 08:41:34;;;;;;;6.30;5.78;;;;;;;23.70;71.39;100978.94;4982969;28;101932;-88
2021/08/10 08:44:00;;;;;;;6.80;6.20;;;;;;;23.70;71.62;100969.78;4984505;28;102252;-88
2021/08/10 08:46:27;;;;;;;7.18;6.47;;;;;;;23.70;71.59;100973.38;4981980;28;102720;-88
2021/08/10 08:48:55;;;;;;;6.78;6.20;;;;;;;23.71;71.39;100966.66;4982268;28;102014;-88
2021/08/10 08:51:25;;;;;;;7.30;6.70;;;;;;;23.72;71.75;100968.25;4978674;28;101991;-88
2021/08/10 08:53:54;;;;;;;7.25;6.65;;;;;;;23.71;71.45;100958.31;4983349;28;102084;-88
2021/08/10 08:56:22;;;;;;;7.22;6.60;;;;;;;23.73;71.40;100956.00;4980889;28;102760;-88
2021/08/10 08:58:52;;;;;;;7.55;6.95;;;;;;;23.72;71.26;100959.91;4982987;28;101915;-88
2021/08/10 09:01:19;;;;;;;7.15;6.60;;;;;;;23.71;71.65;100963.88;4979021;28;101987;-88
2021/08/10 09:03:45;;;;;;;7.13;6.60;;;;;;;23.73;71.58;100946.84;4984036;28;102089;-88
2021/08/10 09:06:12;;;;;;;7.15;6.55;;;;;;;23.72;71.50;100946.03;4975400;28;103058;-89
2021/08/10 09:08:43;;;;;;;7.43;6.82;;;;;;;23.72;71.59;100951.59;4974230;28;101952;-88
2021/08/10 09:11:16;;;;;;;7.78;7.07;;;;;;;23.72;71.61;100948.00;4980404;28;101975;-88
2021/08/10 09:13:54;;;;;;;7.55;6.85;;;;;;;23.73;71.35;100944.88;4975141;28;101932;-88
2021/08/10 09:16:22;;;;;;;8.18;7.47;;;;;;;23.73;71.29;100950.44;4968859;28;102722;-88
2021/08/10 09:18:50;;;;;;;8.13;7.43;;;;;;;23.73;71.42;100949.63;4976278;28;102055;-88
2021/08/10 09:21:19;;;;;;;7.80;7.20;;;;;;;23.73;71.26;100944.88;4981399;28;102268;-89
2021/08/10 09:23:47;;;;;;;;;;;;;;;23.72;71.59;100943.25;4983509;28;102015;-88
2021/08/10 09:26:17;;;;;;;7.45;6.85;;;;;;;23.73;71.44;100947.66;4981497;28;102724;-88
2021/08/10 09:28:45;;;;;;;8.00;7.35;;;;;;;23.73;71.56;100944.09;4975756;28;101927;-90
2021/08/10 09:31:37;;;;;;;7.65;6.95;;;;;;;23.73;71.32;100944.09;4978756;28;102236;-89
2021/08/10 09:34:07;;;;;;;8.63;7.88;;;;;;;23.73;71.33;100944.88;4980601;28;102142;-90
2021/08/10 09:36:35;;;;;;;7.95;7.32;;;;;;;23.74;71.36;100942.91;4971308;28;102404;-88
2021/08/10 09:39:04;;;;;;;8.48;7.68;;;;;;;23.74;71.14;100942.91;4972602;28;102105;-88
2021/08/10 09:41:31;;;;;;;7.85;7.25;;;;;;;23.74;71.59;100945.69;4981795;28;102157;-88
2021/08/10 09:44:13;;;;;;;8.20;7.50;;;;;;;23.73;71.35;100947.66;4980113;28;102239;-89
2021/08/10 09:46:46;;;;;;;8.43;7.72;;;;;;;23.74;71.35;100948.47;4979753;28;102747;-88
2021/08/10 09:49:13;;;;;;;9.07;8.38;;;;;;;23.73;71.44;100946.84;4984947;28;101866;-89
2021/08/10 09:51:42;;;;;;;8.63;7.93;;;;;;;23.73;71.21;100944.88;4985232;28;102006;-88
2021/08/10 09:54:12;;;;;;;8.75;8.07;;;;;;;23.73;71.47;100944.88;4984253;28;101970;-89
2021/08/10 09:56:45;;;;;;;8.38;7.75;;;;;;;23.72;71.35;100943.25;4983569;28;102724;-88
2021/08/10 09:59:13;;;;;;;8.35;7.65;;;;;;;23.73;71.53;100944.09;4976863;28;102160;-88
2021/08/10 10:01:41;;;;;;;8.40;7.70;;;;;;;23.72;71.29;100951.59;4982827;28;101965;-88
2021/08/10 10:04:13;;;;;;;9.73;8.93;;;;;;;23.71;71.26;100947.19;4987968;28;101939;-89
2021/08/10 10:06:39;;;;;;;9.30;8.40;;;;;;;23.73;71.35;100952.41;4979319;28;102729;-87
2021/08/10 10:09:06;;;;;;;8.65;7.90;;;;;;;23.72;71.33;100936.88;4985496;28;101916;-88
2021/08/10 10:11:37;;;;;;;9.15;8.38;;;;;;;23.73;71.14;100944.09;4985407;28;101995;-89
2021/08/10 10:14:08;;;;;;;9.32;7.97;;;;;;;23.71;71.17;100938.84;4978861;28;101854;-88
2021/08/10 10:16:35;;;;;;;8.10;7.50;;;;;;;23.72;71.12;100946.03;4982947;28;102823;-88
2021/08/10 10:19:09;;;;;;;9.52;8.73;;;;;;;23.71;71.30;100941.63;4981964;28;102144;-89
2021/08/10 10:21:37;;;;;;;9.00;8.30;;;;;;;23.71;71.32;100935.28;4978943;28;102219;-90
2021/08/10 10:24:05;;;;;;;9.63;8.83;;;;;;;23.71;71.11;100947.19;4977392;28;102230;-89
2021/08/10 10:26:32;;;;;;;9.75;8.93;;;;;;;23.71;71.26;100932.50;4976150;28;102486;-90
2021/08/10 10:29:03;;;;;;;9.20;8.50;;;;;;;23.71;71.17;100933.31;4996049;28;102177;-90
2021/08/10 10:31:31;;;;;;;9.60;8.80;;;;;;;23.71;71.07;100935.28;4973985;28;102093;-89
2021/08/10 10:33:59;;;;;;;9.63;8.82;;;;;;;23.70;71.27;100942.81;4982844;28;102110;-90
2021/08/10 10:36:26;;;;;;;9.45;8.55;;;;;;;23.70;71.28;100928.91;4976258;28;102506;-89
2021/08/10 10:38:56;;;;;;;9.10;8.40;;;;;;;23.69;71.10;100932.88;4979324;28;102142;-90
2021/08/10 10:41:28;;;;;;;8.90;8.20;;;;;;;23.70;71.33;100928.91;4979430;28;102338;-89
2021/08/10 10:43:56;;;;;;;9.95;9.00;;;;;;;23.69;71.34;100927.31;4983679;28;101837;-90
2021/08/10 10:46:28;;;;;;;9.10;8.23;;;;;;;23.69;71.06;100930.09;4978735;28;102513;-90
2021/08/10 10:48:55;;;;;;;9.55;8.77;;;;;;;23.69;71.34;100926.47;4979791;28;102037;-90
2021/08/10 10:51:24;;;;;;;9.07;8.38;;;;;;;23.68;71.33;100934.00;4980148;28;102084;-89
2021/08/10 10:53:51;;;;;;;8.95;8.15;;;;;;;23.69;71.50;100918.13;4978692;28;102102;-90
2021/08/10 10:56:32;;;;;;;9.93;9.05;;;;;;;23.68;71.44;100931.22;4982018;28;103024;-90
2021/08/10 10:59:34;;;;;;;9.45;8.73;;;;;;;23.68;71.37;100925.66;4974375;28;102171;-90
2021/08/10 11:02:16;;;;;;;9.77;9.00;;;;;;;23.69;71.23;100926.47;4893748;28;102172;-90
2021/08/10 11:05:21;;;;;;;9.43;8.73;;;;;;;23.69;71.26;100930.09;4970514;28;102400;-91
2021/08/10 11:07:55;;;;;;;9.38;8.57;;;;;;;23.68;71.23;100925.66;4974705;28;102793;-90
2021/08/10 11:10:38;;;;;;;9.93;9.13;;;;;;;23.68;71.37;100920.13;4981843;28;102013;-90
2021/08/10 11:13:25;;;;;;;9.57;8.82;;;;;;;23.67;71.28;100912.94;4984828;28;101966;-90
2021/08/10 11:15:56;;;;;;;9.05;8.20;;;;;;;23.67;71.37;100912.94;4982500;28;102157;-90
2021/08/10 11:18:26;;;;;;;9.65;8.80;;;;;;;23.68;71.40;100913.75;4981483;28;102873;-90
2021/08/10 11:21:09;;;;;;;10.70;9.80;;;;;;;23.67;71.33;100904.63;4977950;28;102348;-90
2021/08/10 11:23:37;;;;;;;10.15;9.30;;;;;;;23.67;71.46;100910.19;4977783;28;102301;-90
2021/08/10 11:26:33;;;;;;;10.88;9.95;;;;;;;23.67;71.30;100909.38;4981110;28;101765;-91
2021/08/10 11:29:02;;;;;;;10.23;9.43;;;;;;;23.68;71.77;100908.19;4982581;28;102744;-90